Time;durP1;ratioP1;P1;durP2;ratioP2;P2;SDS_P1;SDS_P2;PMS_P1;PMS_P2;Temp;Humidity;BMP_temperature;BMP_pressure;BME280_temperature;BME280_humidity;BME280_pressure;Samples;Min_cycle;Max_cycle;Signal;HPM_P1;HPM_P2
2023/09/21 00:00:59;;;;;;;14.10;7.20;;;23.50;99.90;;;;;;5105072;28;20034;-56
2023/09/21 00:03:26;;;;;;;15.02;7.10;;;23.30;99.90;;;;;;5105013;28;20142;-57
2023/09/21 00:05:54;;;;;;;13.80;7.05;;;23.30;99.90;;;;;;5104985;28;20062;-56
2023/09/21 00:08:20;;;;;;;10.77;7.18;;;23.30;99.90;;;;;;5105336;28;20031;-56
2023/09/21 00:10:46;;;;;;;12.40;7.30;;;23.10;99.90;;;;;;5105504;28;20019;-57
2023/09/21 00:13:12;;;;;;;12.23;6.80;;;23.20;99.90;;;;;;5105461;28;20032;-58
2023/09/21 00:15:40;;;;;;;10.45;7.00;;;23.20;99.90;;;;;;5105525;28;20028;-56
2023/09/21 00:18:06;;;;;;;12.93;7.32;;;23.10;99.90;;;;;;5105328;28;20020;-56
2023/09/21 00:23:07;;;;;;;14.13;7.35;;;23.20;99.90;;;;;;5105765;28;20029;-56
2023/09/21 00:25:34;;;;;;;11.20;8.02;;;23.10;99.90;;;;;;5105086;28;20015;-56
2023/09/21 00:28:04;;;;;;;16.10;7.60;;;23.20;99.90;;;;;;5105660;28;20023;-57
2023/09/21 00:30:30;;;;;;;13.48;7.78;;;23.00;99.90;;;;;;5070908;28;20520;-57
2023/09/21 00:32:55;;;;;;;13.07;7.40;;;22.90;99.90;;;;;;5106178;28;20051;-56
2023/09/21 00:35:23;;;;;;;11.52;7.70;;;22.90;99.90;;;;;;5105003;28;20032;-55
2023/09/21 00:37:48;;;;;;;11.68;7.65;;;22.90;99.90;;;;;;5105245;28;20039;-57
2023/09/21 00:40:17;;;;;;;13.65;7.50;;;22.90;99.90;;;;;;5104469;28;20035;-57
2023/09/21 00:42:44;;;;;;;11.82;7.40;;;22.80;99.90;;;;;;5104259;28;20089;-55
2023/09/21 00:45:17;;;;;;;14.00;7.60;;;22.90;99.90;;;;;;5101695;28;20024;-59
2023/09/21 00:47:50;;;;;;;12.85;7.28;;;22.80;99.90;;;;;;5109830;28;20050;-55
2023/09/21 00:50:21;;;;;;;13.52;6.85;;;22.70;99.90;;;;;;5086892;28;20016;-58
2023/09/21 00:52:47;;;;;;;10.95;7.43;;;;;;;;;;5104936;28;20038;-56
2023/09/21 00:55:23;;;;;;;14.10;7.18;;;22.30;99.90;;;;;;5104676;28;20032;-58
2023/09/21 00:57:51;;;;;;;15.02;7.57;;;22.40;99.90;;;;;;5105000;28;20020;-57
2023/09/21 01:00:18;;;;;;;12.57;7.30;;;22.50;99.90;;;;;;5104089;28;20897;-59
2023/09/21 01:02:47;;;;;;;12.75;6.80;;;22.70;99.90;;;;;;5103978;28;20066;-59
2023/09/21 01:05:17;;;;;;;13.07;7.65;;;22.80;99.90;;;;;;5103708;28;20513;-57
2023/09/21 01:07:45;;;;;;;13.25;6.80;;;22.70;99.90;;;;;;5103394;28;20028;-57
2023/09/21 01:10:12;;;;;;;10.25;8.20;;;22.70;99.90;;;;;;5103723;28;20023;-58
2023/09/21 01:12:44;;;;;;;10.73;7.45;;;22.60;99.90;;;;;;5104158;28;20382;-56
2023/09/21 01:15:10;;;;;;;12.82;7.57;;;22.40;99.90;;;;;;5103890;28;20487;-58
2023/09/21 01:17:41;;;;;;;11.52;7.32;;;22.40;99.90;;;;;;5103489;28;20386;-57
2023/09/21 01:20:27;;;;;;;10.50;7.05;;;;;;;;;;5103764;28;20168;-56
2023/09/21 01:23:12;;;;;;;12.13;6.90;;;22.30;99.90;;;;;;5105878;28;20471;-56
2023/09/21 01:25:39;;;;;;;10.95;7.07;;;22.40;99.90;;;;;;5104213;28;20034;-58
2023/09/21 01:28:10;;;;;;;10.38;7.78;;;22.50;99.90;;;;;;5104054;28;20110;-58
2023/09/21 01:30:37;;;;;;;9.85;7.38;;;22.40;99.90;;;;;;5104201;28;20020;-58
2023/09/21 01:33:04;;;;;;;11.40;7.50;;;22.30;99.90;;;;;;5103865;28;20065;-57
2023/09/21 01:35:31;;;;;;;9.93;7.10;;;22.00;99.90;;;;;;5103230;28;20412;-56
2023/09/21 01:37:58;;;;;;;11.90;7.22;;;21.90;99.90;;;;;;5103290;28;20028;-55
2023/09/21 01:40:23;;;;;;;11.48;8.07;;;21.90;99.90;;;;;;5103566;28;20028;-57
2023/09/21 01:42:50;;;;;;;10.95;7.53;;;21.90;99.90;;;;;;5103300;28;20030;-56
2023/09/21 01:45:16;;;;;;;11.38;7.35;;;21.90;99.90;;;;;;5068118;28;20031;-58
2023/09/21 01:47:43;;;;;;;15.10;7.82;;;21.70;99.90;;;;;;5103349;28;20030;-57
2023/09/21 01:50:15;;;;;;;13.75;7.80;;;;;;;;;;5103895;28;20032;-55
2023/09/21 01:52:41;;;;;;;;;;;21.60;99.90;;;;;;5104092;28;20031;-56
2023/09/21 01:55:10;;;;;;;14.23;7.85;;;21.60;99.90;;;;;;5103690;28;19904;-58
2023/09/21 01:57:39;;;;;;;9.00;7.60;;;21.90;99.90;;;;;;5102590;28;20024;-56
2023/09/21 02:00:25;;;;;;;11.35;8.27;;;21.70;99.90;;;;;;5103508;28;20458;-58
2023/09/21 02:02:52;;;;;;;11.70;8.05;;;;;;;;;;5049349;28;20475;-57
2023/09/21 02:05:18;;;;;;;10.93;7.93;;;22.10;99.90;;;;;;5102763;28;20052;-56
2023/09/21 02:07:44;;;;;;;13.07;8.98;;;21.90;99.90;;;;;;5102679;28;20383;-57
2023/09/21 02:10:10;;;;;;;13.07;7.82;;;21.90;99.90;;;;;;5060018;28;20039;-58
2023/09/21 02:12:38;;;;;;;9.90;7.55;;;21.70;99.90;;;;;;5103128;28;20020;-59
2023/09/21 02:15:10;;;;;;;11.45;8.23;;;;;;;;;;5103009;28;20091;-57
2023/09/21 02:17:40;;;;;;;10.15;7.88;;;21.50;99.90;;;;;;5026762;28;20479;-58
2023/09/21 02:20:12;;;;;;;10.07;7.38;;;;;;;;;;5102453;28;20038;-56
2023/09/21 02:22:38;;;;;;;12.68;8.85;;;21.30;99.90;;;;;;5103594;28;20027;-57
2023/09/21 02:25:10;;;;;;;13.85;8.20;;;21.40;99.90;;;;;;5067037;28;20426;-57
2023/09/21 02:27:37;;;;;;;13.18;9.30;;;21.60;99.90;;;;;;5103186;28;20031;-56
2023/09/21 02:30:05;;;;;;;11.00;8.30;;;21.60;99.90;;;;;;5102508;28;20016;-56
2023/09/21 02:32:33;;;;;;;13.07;8.30;;;21.80;99.90;;;;;;5102288;28;20030;-57
2023/09/21 02:35:00;;;;;;;12.43;8.27;;;21.70;99.90;;;;;;5102587;28;20028;-56
2023/09/21 02:37:25;;;;;;;13.02;8.23;;;21.50;99.90;;;;;;5102047;28;20084;-58
2023/09/21 02:39:51;;;;;;;15.80;9.48;;;21.50;99.90;;;;;;5101896;28;20356;-58
2023/09/21 02:42:17;;;;;;;17.05;9.18;;;21.60;99.90;;;;;;5102729;28;20027;-56
2023/09/21 02:44:45;;;;;;;11.95;8.18;;;;;;;;;;5103114;28;20454;-58
2023/09/21 02:47:12;;;;;;;10.90;8.50;;;;;;;;;;5102534;28;20035;-56
2023/09/21 02:49:37;;;;;;;10.68;8.23;;;21.00;99.90;;;;;;5101274;28;20023;-58
2023/09/21 02:52:04;;;;;;;11.02;7.65;;;;;;;;;;5102327;28;20393;-57
2023/09/21 02:54:32;;;;;;;11.23;7.97;;;20.70;99.90;;;;;;5102923;28;20026;-56
2023/09/21 02:56:59;;;;;;;25.50;9.27;;;20.90;99.90;;;;;;5102455;28;20474;-59
2023/09/21 02:59:28;;;;;;;11.52;7.25;;;21.10;99.90;;;;;;5050507;28;20050;-58
2023/09/21 03:01:54;;;;;;;11.57;7.85;;;21.30;99.90;;;;;;5102669;28;20030;-55
2023/09/21 03:04:20;;;;;;;10.18;8.02;;;21.50;99.90;;;;;;5066900;28;20028;-57
2023/09/21 03:06:46;;;;;;;10.55;7.88;;;21.40;99.90;;;;;;5066045;28;20403;-57
2023/09/21 03:09:12;;;;;;;11.90;7.13;;;21.10;99.90;;;;;;5101539;28;20032;-57
2023/09/21 03:11:39;;;;;;;9.15;7.13;;;21.00;99.90;;;;;;5101561;28;20028;-57
2023/09/21 03:14:05;;;;;;;12.70;7.82;;;21.20;99.90;;;;;;5101560;28;20031;-59
2023/09/21 03:16:32;;;;;;;12.98;7.25;;;21.30;99.90;;;;;;5102669;28;20022;-55
2023/09/21 03:18:58;;;;;;;13.02;7.47;;;21.30;99.90;;;;;;5102350;28;20074;-59
2023/09/21 03:21:24;;;;;;;9.52;7.38;;;21.20;99.90;;;;;;5102206;28;20036;-56
2023/09/21 03:23:52;;;;;;;12.38;7.65;;;21.30;99.90;;;;;;5102266;28;20028;-57
2023/09/21 03:26:19;;;;;;;11.85;7.47;;;21.20;99.90;;;;;;5102315;28;20024;-57
2023/09/21 03:28:48;;;;;;;13.38;7.45;;;21.30;99.90;;;;;;5102222;28;20020;-57
2023/09/21 03:31:15;;;;;;;11.13;7.20;;;21.30;99.90;;;;;;5103676;28;20023;-56
2023/09/21 03:33:41;;;;;;;7.93;7.03;;;21.10;99.90;;;;;;5106800;28;20035;-56
2023/09/21 03:36:13;;;;;;;10.70;8.00;;;21.00;99.90;;;;;;5106139;28;20489;-54
2023/09/21 03:38:41;;;;;;;14.93;8.25;;;21.00;99.90;;;;;;5106428;28;20100;-59
2023/09/21 03:41:07;;;;;;;12.38;7.70;;;20.90;99.90;;;;;;5071078;28;20036;-56
2023/09/21 03:43:33;;;;;;;8.23;7.05;;;20.70;99.90;;;;;;5106055;28;20497;-56
2023/09/21 03:45:59;;;;;;;9.02;6.93;;;20.70;99.90;;;;;;5071473;28;20074;-56
2023/09/21 03:48:24;;;;;;;9.20;6.88;;;20.80;99.90;;;;;;5105321;28;20028;-57
2023/09/21 03:50:52;;;;;;;10.60;7.30;;;20.70;99.90;;;;;;5105649;28;20024;-57
2023/09/21 03:53:17;;;;;;;12.93;6.80;;;20.80;99.90;;;;;;5105962;28;20448;-54
2023/09/21 03:55:46;;;;;;;10.90;7.30;;;20.70;99.90;;;;;;5106012;28;20020;-57
2023/09/21 03:58:12;;;;;;;11.18;7.25;;;20.80;99.90;;;;;;5105843;28;20409;-56
2023/09/21 04:00:38;;;;;;;13.73;7.43;;;20.80;99.90;;;;;;5105893;28;20165;-57
2023/09/21 04:03:10;;;;;;;13.98;7.47;;;20.70;99.90;;;;;;5105404;28;20152;-54
2023/09/21 04:05:39;;;;;;;13.80;7.60;;;20.60;99.90;;;;;;5069756;28;20048;-55
2023/09/21 04:08:05;;;;;;;15.82;8.05;;;20.50;99.90;;;;;;5105346;28;20455;-58
2023/09/21 04:10:32;;;;;;;13.02;6.95;;;;;;;;;;5105060;28;20020;-55
2023/09/21 04:12:58;;;;;;;10.55;7.28;;;20.50;99.90;;;;;;5105241;28;20031;-55
2023/09/21 04:15:29;;;;;;;12.82;7.43;;;20.50;99.90;;;;;;5104986;28;20065;-56
2023/09/21 04:17:57;;;;;;;11.80;6.55;;;20.50;99.90;;;;;;5105036;28;20026;-56
2023/09/21 04:20:23;;;;;;;9.20;7.03;;;;;;;;;;5104849;28;20446;-55
2023/09/21 04:22:52;;;;;;;13.45;7.32;;;;;;;;;;5105315;28;20019;-55
2023/09/21 04:25:18;;;;;;;12.63;6.93;;;;;;;;;;5105352;28;20063;-53
2023/09/21 04:27:49;;;;;;;10.50;7.13;;;20.20;99.90;;;;;;5105089;28;20020;-56
2023/09/21 04:30:16;;;;;;;9.37;7.80;;;20.40;99.90;;;;;;5101692;28;20024;-57
2023/09/21 04:32:45;;;;;;;10.90;6.65;;;20.40;99.90;;;;;;5104842;28;20040;-55
2023/09/21 04:35:11;;;;;;;10.85;7.75;;;20.40;99.90;;;;;;5051313;28;20075;-58
2023/09/21 04:37:39;;;;;;;14.95;7.88;;;20.50;99.90;;;;;;5106658;28;20059;-56
2023/09/21 04:40:10;;;;;;;13.05;7.47;;;20.50;99.90;;;;;;5103411;28;20079;-59
2023/09/21 04:42:39;;;;;;;14.88;7.78;;;20.50;99.90;;;;;;5104643;28;20048;-55
2023/09/21 04:45:10;;;;;;;13.07;7.72;;;20.50;99.90;;;;;;5107534;28;20103;-56
2023/09/21 04:47:45;;;;;;;12.88;7.65;;;20.40;99.90;;;;;;5076750;28;20035;-57
2023/09/21 04:50:16;;;;;;;13.77;8.35;;;20.40;99.90;;;;;;5106620;28;20032;-56
2023/09/21 04:52:43;;;;;;;10.77;7.63;;;20.40;99.90;;;;;;5106861;28;20092;-56
2023/09/21 04:55:10;;;;;;;12.00;7.82;;;20.40;99.90;;;;;;5104990;28;20032;-58
2023/09/21 04:57:36;;;;;;;9.43;7.40;;;20.50;99.90;;;;;;5103898;28;20355;-54
2023/09/21 05:00:07;;;;;;;11.27;7.65;;;20.60;99.90;;;;;;5068301;28;20136;-54
2023/09/21 05:02:33;;;;;;;13.35;7.32;;;20.80;99.90;;;;;;5102180;28;20036;-55
2023/09/21 05:04:59;;;;;;;13.48;7.72;;;21.00;99.90;;;;;;5104454;28;20107;-56
2023/09/21 05:07:26;;;;;;;13.68;8.98;;;21.10;99.90;;;;;;5101882;28;20115;-57
2023/09/21 05:09:51;;;;;;;13.15;8.73;;;21.20;99.90;;;;;;5101984;28;20485;-55
2023/09/21 05:12:18;;;;;;;12.60;8.13;;;21.20;99.90;;;;;;5104307;28;20106;-56
2023/09/21 05:14:45;;;;;;;11.63;8.93;;;21.30;99.90;;;;;;5104649;28;20050;-58
2023/09/21 05:17:11;;;;;;;16.35;8.27;;;21.30;99.90;;;;;;5104351;28;20020;-56
2023/09/21 05:19:37;;;;;;;15.63;7.78;;;21.40;99.90;;;;;;5104118;28;20077;-54
2023/09/21 05:22:04;;;;;;;11.32;8.55;;;21.50;99.90;;;;;;5051516;28;20426;-54
2023/09/21 05:24:32;;;;;;;11.52;7.57;;;21.40;99.90;;;;;;5102202;28;20027;-54
2023/09/21 05:26:58;;;;;;;12.32;7.63;;;21.30;99.90;;;;;;5102439;28;20031;-55
2023/09/21 05:29:25;;;;;;;12.45;7.95;;;21.30;99.90;;;;;;5104927;28;20020;-55
2023/09/21 05:31:51;;;;;;;12.55;7.40;;;21.60;99.90;;;;;;5104801;28;20050;-55
2023/09/21 05:34:17;;;;;;;11.82;8.27;;;21.70;99.90;;;;;;5086282;28;20036;-54
2023/09/21 05:36:47;;;;;;;12.45;8.02;;;21.80;99.90;;;;;;5052025;28;20032;-56
2023/09/21 05:39:23;;;;;;;11.02;7.40;;;21.80;99.90;;;;;;5070307;28;20043;-56
2023/09/21 05:41:49;;;;;;;14.30;8.18;;;21.60;99.90;;;;;;5110651;28;20035;-55
2023/09/21 05:44:21;;;;;;;13.48;8.90;;;21.60;99.90;;;;;;5079133;28;20028;-55
2023/09/21 05:46:47;;;;;;;17.98;8.73;;;21.50;99.90;;;;;;5115171;28;20463;-56
2023/09/21 05:49:21;;;;;;;11.70;7.75;;;21.50;99.90;;;;;;5115074;28;20032;-55
2023/09/21 05:51:48;;;;;;;12.05;8.98;;;21.40;99.90;;;;;;5114782;28;20024;-56
2023/09/21 05:54:16;;;;;;;12.48;8.13;;;21.40;99.90;;;;;;5114704;28;20066;-54
2023/09/21 05:56:43;;;;;;;16.63;7.95;;;21.50;99.90;;;;;;5114679;28;20498;-55
2023/09/21 05:59:09;;;;;;;13.98;7.70;;;21.80;99.90;;;;;;5114592;28;20031;-54
2023/09/21 06:01:35;;;;;;;16.33;8.52;;;;;;;;;;5115175;28;20030;-55
2023/09/21 06:04:02;;;;;;;13.43;8.18;;;22.50;99.90;;;;;;5114660;28;20082;-54
2023/09/21 06:06:29;;;;;;;12.20;7.95;;;;;;;;;;5114354;28;20054;-56
2023/09/21 06:08:57;;;;;;;14.90;9.38;;;23.00;99.90;;;;;;5114540;28;20016;-54
2023/09/21 06:11:29;;;;;;;12.38;7.50;;;23.10;99.90;;;;;;5096213;28;20493;-54
2023/09/21 06:13:54;;;;;;;12.48;7.88;;;23.30;99.90;;;;;;5114605;28;20023;-54
2023/09/21 06:16:21;;;;;;;11.43;7.85;;;23.40;99.90;;;;;;5071589;28;20131;-55
2023/09/21 06:18:51;;;;;;;11.63;7.63;;;23.70;99.90;;;;;;5071459;28;20456;-55
2023/09/21 06:21:17;;;;;;;13.93;8.27;;;24.10;99.90;;;;;;5071169;28;20039;-55
2023/09/21 06:23:44;;;;;;;10.55;7.20;;;;;;;;;;5071337;28;20037;-54
2023/09/21 06:26:14;;;;;;;11.98;7.20;;;;;;;;;;5019474;28;20602;-55
2023/09/21 06:28:43;;;;;;;12.82;7.57;;;;;;;;;;5064174;28;20036;-54
2023/09/21 06:31:11;;;;;;;10.23;7.88;;;24.70;99.90;;;;;;5071264;28;20562;-55
2023/09/21 06:33:37;;;;;;;13.63;7.05;;;24.70;99.90;;;;;;5067958;28;20044;-55
2023/09/21 06:36:03;;;;;;;11.13;7.18;;;;;;;;;;5071415;28;20036;-55
2023/09/21 06:38:29;;;;;;;12.85;7.40;;;24.70;99.90;;;;;;5038117;28;20037;-54
2023/09/21 06:40:54;;;;;;;10.85;6.75;;;24.70;99.90;;;;;;5071249;28;20035;-56
2023/09/21 06:43:21;;;;;;;13.02;7.30;;;24.80;99.90;;;;;;5071324;28;20086;-55
2023/09/21 06:45:47;;;;;;;10.05;6.82;;;24.80;99.90;;;;;;5066570;28;20028;-55
2023/09/21 06:48:13;;;;;;;11.35;7.00;;;;;;;;;;5108230;28;20039;-56
2023/09/21 09:31:51;;;;;;;13.43;4.22;;;;;;;;;;5014425;23;1333329;-56
2023/09/21 09:34:18;;;;;;;8.98;4.20;;;;;;;;;;4960748;28;20047;-51
2023/09/21 09:36:52;;;;;;;8.55;4.65;;;;;;;;;;4956055;29;20035;-52
2023/09/21 09:39:23;;;;;;;11.80;4.07;;;;;;;;;;4956018;29;20055;-51
2023/09/21 09:41:51;;;;;;;10.07;3.40;;;32.90;99.90;;;;;;4956528;29;20024;-53
2023/09/21 09:44:24;;;;;;;8.98;3.78;;;33.70;96.60;;;;;;4959089;28;20042;-51
2023/09/21 09:46:56;;;;;;;6.97;5.00;;;;;;;;;;4971433;28;20035;-53
2023/09/21 09:49:26;;;;;;;8.52;3.50;;;;;;;;;;4974414;28;20089;-51
2023/09/21 09:51:56;;;;;;;9.00;3.08;;;;;;;;;;4974596;28;20050;-52
2023/09/21 09:54:24;;;;;;;7.38;2.97;;;;;;;;;;4972198;28;20117;-51
2023/09/21 09:56:52;;;;;;;11.13;3.70;;;34.50;93.80;;;;;;4967321;28;20051;-53
2023/09/21 09:59:19;;;;;;;9.48;2.67;;;;;;;;;;4974828;28;20417;-52
2023/09/21 10:01:46;;;;;;;11.13;3.28;;;;;;;;;;4973902;28;20042;-53
2023/09/21 10:04:14;;;;;;;14.73;3.08;;;;;;;;;;4972797;28;20034;-51
2023/09/21 10:06:41;;;;;;;9.25;3.88;;;33.80;99.90;;;;;;4973324;28;20194;-52
2023/09/21 10:09:13;;;;;;;7.88;2.85;;;34.60;98.90;;;;;;4973885;28;20035;-51
2023/09/21 10:11:46;;;;;;;11.45;3.83;;;;;;;;;;4974747;28;20039;-52
2023/09/21 10:14:17;;;;;;;8.63;3.00;;;34.50;93.20;;;;;;4974950;28;20066;-52
2023/09/21 10:16:49;;;;;;;8.23;3.00;;;;;;;;;;4970169;28;20045;-53
2023/09/21 10:19:24;;;;;;;9.35;3.58;;;34.70;93.10;;;;;;4973034;28;20042;-52
2023/09/21 10:21:54;;;;;;;10.27;2.70;;;;;;;;;;4937494;29;20122;-52
2023/09/21 10:24:21;;;;;;;7.72;3.10;;;;;;;;;;4955257;28;20114;-52
2023/09/21 10:26:50;;;;;;;8.48;2.20;;;;;;;;;;4972221;28;20062;-51
2023/09/21 10:29:19;;;;;;;7.45;3.15;;;;;;;;;;4971606;28;20030;-53
2023/09/21 10:31:46;;;;;;;10.40;2.92;;;;;;;;;;4990564;28;20129;-52
2023/09/21 10:34:13;;;;;;;9.23;3.03;;;;;;;;;;4993571;28;20493;-52
2023/09/21 10:36:45;;;;;;;7.75;2.92;;;;;;;;;;4992873;28;20038;-52
2023/09/21 10:39:12;;;;;;;;;;;;;;;;;;4994546;28;20035;-52
2023/09/21 10:41:42;;;;;;;8.80;2.88;;;;;;;;;;4992372;28;19910;-53
2023/09/21 10:44:09;;;;;;;7.00;2.80;;;;;;;;;;4985682;28;20243;-52
2023/09/21 10:46:37;;;;;;;9.15;3.30;;;;;;;;;;4992551;28;20065;-52
2023/09/21 10:49:09;;;;;;;11.98;4.20;;;36.50;90.30;;;;;;4990415;28;20042;-54
2023/09/21 10:51:41;;;;;;;7.90;3.35;;;36.80;90.70;;;;;;4990711;28;20488;-52
2023/09/21 10:54:07;;;;;;;8.60;2.92;;;;;;;;;;4974937;28;20053;-53
2023/09/21 10:56:36;;;;;;;11.98;3.72;;;37.00;98.20;;;;;;4993408;28;20438;-52
2023/09/21 10:59:03;;;;;;;12.80;3.22;;;;;;;;;;4990885;28;20057;-54
2023/09/21 11:01:29;;;;;;;9.20;3.33;;;35.90;99.90;;;;;;4990798;28;20030;-53
2023/09/21 11:03:55;;;;;;;9.65;2.55;;;;;;;;;;4943678;28;20031;-52
2023/09/21 11:06:22;;;;;;;7.10;2.53;;;;;;;;;;4992928;28;20026;-52
2023/09/21 11:08:48;;;;;;;8.50;2.50;;;35.20;93.30;;;;;;4945337;28;20039;-52
2023/09/21 11:11:19;;;;;;;17.65;3.75;;;35.00;91.40;;;;;;4974169;28;20027;-52
2023/09/21 11:13:50;;;;;;;11.00;2.83;;;36.30;97.90;;;;;;4985826;28;20039;-52
2023/09/21 11:16:16;;;;;;;9.82;2.67;;;;;;;;;;4990960;28;20501;-52
2023/09/21 11:18:42;;;;;;;9.93;3.05;;;36.90;95.60;;;;;;4981893;28;20313;-52
2023/09/21 11:21:11;;;;;;;7.93;2.97;;;36.10;96.30;;;;;;4981411;28;20030;-53
2023/09/21 11:23:57;;;;;;;9.95;3.00;;;;;;;;;;4930320;29;20054;-52
2023/09/21 11:26:24;;;;;;;11.05;2.42;;;;;;;;;;4892774;29;20511;-53
2023/09/21 11:28:58;;;;;;;7.13;2.65;;;;;;;;;;4930441;29;20505;-56
2023/09/21 11:31:24;;;;;;;6.30;2.38;;;;;;;;;;4915034;29;20084;-53
2023/09/21 11:33:50;;;;;;;8.05;3.17;;;;;;;;;;4932753;29;20055;-52
2023/09/21 11:36:16;;;;;;;9.07;3.05;;;37.50;96.90;;;;;;4931097;29;20475;-57
2023/09/21 11:38:42;;;;;;;13.15;3.90;;;;;;;;;;4932487;29;20135;-54
2023/09/21 11:41:09;;;;;;;12.73;3.35;;;;;;;;;;4935690;29;20550;-53
2023/09/21 11:43:34;;;;;;;9.43;2.95;;;37.10;99.90;;;;;;4936901;29;20079;-53
2023/09/21 11:46:06;;;;;;;5.68;2.65;;;37.40;99.90;;;;;;4936097;29;20036;-54
2023/09/21 11:48:33;;;;;;;8.75;2.88;;;;;;;;;;4936580;29;20043;-54
2023/09/21 11:50:59;;;;;;;8.32;2.75;;;;;;;;;;4936389;29;20039;-53
2023/09/21 11:53:26;;;;;;;6.97;3.20;;;;;;;;;;4936484;29;20043;-54
2023/09/21 11:55:52;;;;;;;6.28;2.80;;;;;;;;;;4972094;28;20121;-54
2023/09/21 11:58:18;;;;;;;8.48;3.15;;;36.30;97.40;;;;;;4940855;28;20038;-56
2023/09/21 12:00:46;;;;;;;12.50;3.00;;;36.50;99.90;;;;;;4976318;28;20382;-57
2023/09/21 12:03:16;;;;;;;8.35;2.60;;;;;;;;;;4976618;28;20030;-57
2023/09/21 12:05:43;;;;;;;10.10;3.00;;;35.50;93.80;;;;;;4974150;28;20023;-55
2023/09/21 12:08:14;;;;;;;9.43;3.47;;;36.40;92.50;;;;;;4977386;28;20110;-55
2023/09/21 12:10:46;;;;;;;9.95;2.78;;;36.40;93.00;;;;;;4976411;28;20039;-57
2023/09/21 12:13:17;;;;;;;9.27;3.53;;;36.40;91.70;;;;;;4973572;28;20038;-56
2023/09/21 12:15:43;;;;;;;8.65;2.85;;;36.60;91.90;;;;;;4976852;28;20478;-53
2023/09/21 12:18:12;;;;;;;9.40;3.20;;;36.20;91.90;;;;;;4958649;28;20042;-53
2023/09/21 12:20:42;;;;;;;7.70;2.90;;;;;;;;;;4976442;28;20042;-53
2023/09/21 12:23:09;;;;;;;7.70;2.80;;;;;;;;;;4976905;28;20502;-54
2023/09/21 12:25:35;;;;;;;11.10;3.38;;;;;;;;;;4973350;28;20039;-53
2023/09/21 12:28:02;;;;;;;11.88;3.50;;;;;;;;;;4973649;28;20042;-53
2023/09/21 12:30:27;;;;;;;9.25;3.47;;;33.60;89.60;;;;;;4970872;28;20062;-55
2023/09/21 12:32:53;;;;;;;9.38;3.42;;;33.90;90.00;;;;;;4988311;28;20037;-54
2023/09/21 12:35:25;;;;;;;7.75;3.05;;;34.00;90.00;;;;;;4995886;28;20537;-52
2023/09/21 12:37:51;;;;;;;11.70;2.78;;;34.10;89.60;;;;;;4995947;28;20417;-53
2023/09/21 12:40:18;;;;;;;9.90;2.70;;;34.80;89.90;;;;;;4996114;28;20490;-52
2023/09/21 12:42:45;;;;;;;9.95;2.80;;;35.10;87.20;;;;;;4995193;28;20046;-53
2023/09/21 12:45:15;;;;;;;7.85;2.88;;;;;;;;;;4995104;28;20469;-53
2023/09/21 12:47:44;;;;;;;6.93;3.15;;;35.00;86.90;;;;;;4991169;28;20066;-53
2023/09/21 12:50:12;;;;;;;8.90;2.53;;;;;;;;;;4961294;28;20076;-53
2023/09/21 12:52:42;;;;;;;8.98;2.95;;;33.90;87.20;;;;;;4995222;28;20045;-53
2023/09/21 12:55:08;;;;;;;9.38;2.53;;;34.00;88.00;;;;;;4996173;28;20047;-52
2023/09/21 12:57:41;;;;;;;10.68;3.22;;;34.10;88.10;;;;;;4962151;28;20042;-53
2023/09/21 13:00:11;;;;;;;9.30;3.22;;;;;;;;;;4996009;28;20037;-52
2023/09/21 13:02:38;;;;;;;12.73;3.67;;;33.40;88.40;;;;;;4995614;28;20038;-52
2023/09/21 13:05:05;;;;;;;12.98;3.25;;;33.30;89.10;;;;;;4995548;28;20030;-53
2023/09/21 13:07:31;;;;;;;6.82;2.55;;;33.20;89.20;;;;;;4961652;28;20050;-53
2023/09/21 13:09:57;;;;;;;10.35;2.80;;;;;;;;;;4995525;28;20038;-52
2023/09/21 13:12:23;;;;;;;9.30;3.90;;;;;;;;;;4990658;28;20030;-53
2023/09/21 13:14:49;;;;;;;8.82;2.33;;;;;;;;;;4995378;28;20042;-52
2023/09/21 13:17:21;;;;;;;7.47;3.08;;;;;;;;;;4994231;28;20053;-52
2023/09/21 13:19:48;;;;;;;6.97;2.75;;;;;;;;;;4991923;28;20038;-53
2023/09/21 13:22:15;;;;;;;9.55;3.58;;;31.70;90.20;;;;;;4994639;28;20085;-52
2023/09/21 13:24:41;;;;;;;12.98;3.45;;;31.70;94.20;;;;;;4995203;28;20034;-53
2023/09/21 13:27:08;;;;;;;7.50;2.50;;;;;;;;;;4993832;28;20042;-53
2023/09/21 13:29:35;;;;;;;10.52;3.15;;;;;;;;;;4993667;28;20430;-53
2023/09/21 13:32:02;;;;;;;9.93;3.03;;;;;;;;;;4990183;28;20054;-53
2023/09/21 13:34:28;;;;;;;10.57;2.95;;;31.20;99.90;;;;;;4993308;28;20493;-53
2023/09/21 13:36:54;;;;;;;6.88;2.92;;;31.40;99.90;;;;;;4993500;28;20038;-53
2023/09/21 13:39:20;;;;;;;12.38;4.10;;;31.50;99.90;;;;;;4992104;28;20038;-53
2023/09/21 13:41:53;;;;;;;8.02;2.65;;;31.40;99.90;;;;;;4993519;28;20474;-53
2023/09/21 13:44:19;;;;;;;9.95;2.58;;;;;;;;;;4987880;28;20089;-53
2023/09/21 13:46:45;;;;;;;7.38;2.80;;;;;;;;;;4987498;28;20050;-53
2023/09/21 13:49:11;;;;;;;7.95;2.92;;;;;;;;;;4991221;28;20034;-53
2023/09/21 13:51:38;;;;;;;7.07;3.70;;;30.50;91.90;;;;;;4993577;28;20031;-54
2023/09/21 13:54:05;;;;;;;11.35;3.33;;;;;;;;;;4993179;28;20101;-53
2023/09/21 13:56:31;;;;;;;11.40;3.85;;;;;;;;;;4942809;28;20038;-55
2023/09/21 13:58:57;;;;;;;11.70;3.72;;;;;;;;;;4992682;28;20359;-53
2023/09/21 14:01:25;;;;;;;13.27;3.50;;;;;;;;;;4991163;28;20426;-54
2023/09/21 14:03:51;;;;;;;9.02;2.97;;;30.10;92.40;;;;;;4990632;28;20034;-52
2023/09/21 14:06:20;;;;;;;13.00;3.40;;;30.00;93.00;;;;;;4993243;28;20033;-55
2023/09/21 14:08:46;;;;;;;15.35;4.35;;;30.00;92.80;;;;;;4990626;28;20109;-53
2023/09/21 14:11:12;;;;;;;11.95;3.25;;;30.10;94.80;;;;;;4992120;28;20557;-54
2023/09/21 14:13:40;;;;;;;10.88;2.97;;;;;;;;;;4989146;28;20052;-53
2023/09/21 14:16:06;;;;;;;9.30;3.30;;;;;;;;;;4988860;28;20457;-55
2023/09/21 14:18:32;;;;;;;11.23;3.33;;;;;;;;;;4990882;28;20397;-54
2023/09/21 14:20:58;;;;;;;5.82;3.03;;;29.90;99.90;;;;;;4986818;28;20034;-53
2023/09/21 14:23:24;;;;;;;9.65;3.70;;;29.80;99.90;;;;;;4990760;28;20037;-53
2023/09/21 14:25:50;;;;;;;12.52;3.20;;;30.00;95.20;;;;;;4990624;28;20038;-54
2023/09/21 14:28:16;;;;;;;12.95;3.55;;;29.50;93.50;;;;;;4989873;28;20502;-54
2023/09/21 14:30:42;;;;;;;11.27;3.20;;;;;;;;;;4941858;28;20124;-53
2023/09/21 14:33:08;;;;;;;8.13;2.28;;;;;;;;;;4992949;28;20105;-54
2023/09/21 14:35:34;;;;;;;6.20;2.55;;;;;;;;;;4992445;28;20034;-54
2023/09/21 14:38:01;;;;;;;11.90;3.30;;;;;;;;;;4992659;28;20034;-54
2023/09/21 14:40:29;;;;;;;9.18;3.70;;;28.50;99.90;;;;;;4992654;28;20037;-52
2023/09/21 14:42:56;;;;;;;8.52;3.30;;;;;;;;;;4974898;28;20386;-52
2023/09/21 14:45:23;;;;;;;5.40;2.88;;;;;;;;;;4990604;28;20026;-52
2023/09/21 14:47:48;;;;;;;12.32;3.17;;;28.30;99.90;;;;;;4992454;28;20037;-53
2023/09/21 14:50:15;;;;;;;8.48;2.63;;;;;;;;;;4957658;28;20042;-52
2023/09/21 14:52:41;;;;;;;11.20;2.97;;;;;;;;;;4989670;28;20026;-52
2023/09/21 14:55:07;;;;;;;7.78;3.13;;;;;;;;;;4989686;28;20132;-54
2023/09/21 14:57:33;;;;;;;9.55;2.95;;;;;;;;;;4991869;28;20062;-53
2023/09/21 15:00:00;;;;;;;8.93;3.10;;;28.00;95.60;;;;;;4992694;28;20117;-55
2023/09/21 15:02:26;;;;;;;10.75;4.07;;;27.90;94.90;;;;;;4991425;28;20109;-54
2023/09/21 15:04:52;;;;;;;10.02;3.38;;;27.80;95.00;;;;;;4989399;28;20070;-52
2023/09/21 15:07:18;;;;;;;11.98;3.55;;;27.70;95.40;;;;;;4990150;28;20478;-53
2023/09/21 15:09:47;;;;;;;13.50;4.40;;;27.50;95.70;;;;;;4989892;28;20034;-52
2023/09/21 15:12:14;;;;;;;11.15;4.47;;;27.50;96.20;;;;;;4990832;28;20038;-53
2023/09/21 15:14:41;;;;;;;11.13;3.55;;;;;;;;;;4957244;28;20058;-53
2023/09/21 15:17:06;;;;;;;16.80;4.32;;;27.40;96.40;;;;;;4994472;28;20034;-54
2023/09/21 15:19:32;;;;;;;12.73;4.40;;;27.40;96.80;;;;;;4977011;28;20434;-54
2023/09/21 15:21:58;;;;;;;13.95;4.05;;;27.30;96.70;;;;;;4995819;28;20117;-53
2023/09/21 15:24:25;;;;;;;11.02;3.72;;;27.40;96.90;;;;;;4995109;28;20039;-53
2023/09/21 15:27:49;;;;;;;15.80;3.85;;;27.30;96.90;;;;;;4995019;28;20041;-55
2023/09/21 15:30:15;;;;;;;17.60;3.85;;;27.40;96.90;;;;;;4992560;28;20026;-54
2023/09/21 15:32:41;;;;;;;13.07;4.45;;;27.40;96.90;;;;;;4959029;28;20250;-54
2023/09/21 15:35:09;;;;;;;11.70;3.83;;;27.40;96.90;;;;;;4995058;28;20043;-54
2023/09/21 15:37:35;;;;;;;15.50;3.97;;;27.50;97.00;;;;;;4994172;28;20117;-54
2023/09/21 15:40:01;;;;;;;12.23;4.93;;;27.50;97.10;;;;;;4990718;28;20172;-54
2023/09/21 15:42:27;;;;;;;12.57;4.13;;;27.40;97.10;;;;;;4995051;28;20108;-54
2023/09/21 15:44:52;;;;;;;15.77;4.20;;;27.50;97.10;;;;;;4994929;28;20034;-54
2023/09/21 15:47:18;;;;;;;13.23;3.97;;;27.50;97.30;;;;;;4993478;28;20041;-54
2023/09/21 15:49:44;;;;;;;7.45;3.58;;;27.60;97.20;;;;;;4927841;28;20490;-53
2023/09/21 15:52:11;;;;;;;11.13;3.75;;;27.50;97.40;;;;;;4995272;28;20030;-52
2023/09/21 15:54:38;;;;;;;17.88;4.40;;;27.50;97.50;;;;;;4995027;28;20049;-53
2023/09/21 15:57:04;;;;;;;13.10;4.15;;;27.50;97.90;;;;;;4993765;28;20034;-53
2023/09/21 15:59:29;;;;;;;9.55;3.72;;;27.40;98.00;;;;;;4988771;28;20389;-53